Time;durP1;ratioP1;P1;durP2;ratioP2;P2;SDS_P1;SDS_P2;PMS_P1;PMS_P2;Temp;Humidity;BMP_temperature;BMP_pressure;BME280_temperature;BME280_humidity;BME280_pressure;Samples;Min_cycle;Max_cycle;Signal;HPM_P1;HPM_P2
2021/05/09 08:06:00;;;;;;;1.95;0.68;;;25.10;97.40;;;;;;3702733;23;20256;-72
2021/05/09 08:08:26;;;;;;;3.35;0.90;;;25.00;97.10;;;;;;4956133;29;20243;-72
2021/05/09 08:10:53;;;;;;;2.67;0.82;;;24.90;97.10;;;;;;4957024;29;20271;-72
2021/05/09 08:13:19;;;;;;;3.13;0.77;;;24.10;97.70;;;;;;4956713;28;20232;-72
2021/05/09 08:15:45;;;;;;;1.17;0.90;;;23.30;98.70;;;;;;4956812;29;20227;-72
2021/05/09 08:18:11;;;;;;;4.45;1.48;;;23.10;99.50;;;;;;4956418;29;20208;-72
2021/05/09 08:20:38;;;;;;;2.58;0.68;;;23.20;99.60;;;;;;4956518;29;20252;-72
2021/05/09 08:23:05;;;;;;;1.60;0.73;;;23.20;99.70;;;;;;4956707;28;20275;-72
2021/05/09 08:25:32;;;;;;;1.38;0.90;;;23.20;99.70;;;;;;4956623;29;20691;-72
2021/05/09 08:27:58;;;;;;;2.88;0.75;;;23.10;99.00;;;;;;4956633;29;20278;-72
2021/05/09 08:30:25;;;;;;;1.35;0.70;;;22.90;99.60;;;;;;4956391;29;20227;-72
2021/05/09 08:32:52;;;;;;;1.30;0.80;;;22.70;99.50;;;;;;4956544;28;20236;-72
2021/05/09 08:35:19;;;;;;;0.88;0.70;;;22.50;99.90;;;;;;4956862;29;20208;-72
2021/05/09 08:37:46;;;;;;;1.05;0.70;;;22.50;99.90;;;;;;4956534;29;20220;-72
2021/05/09 08:40:15;;;;;;;1.10;0.77;;;22.30;99.90;;;;;;4956518;29;20212;-72
2021/05/09 08:42:42;;;;;;;0.93;0.70;;;22.30;99.90;;;;;;4956161;28;20231;-72
2021/05/09 08:45:09;;;;;;;1.90;1.08;;;22.20;99.90;;;;;;4956258;29;20208;-72
2021/05/09 08:47:38;;;;;;;2.30;1.10;;;22.20;99.90;;;;;;4955360;29;20243;-71
2021/05/09 08:50:05;;;;;;;1.25;0.90;;;22.50;99.90;;;;;;4955878;29;20203;-71
2021/05/09 08:52:33;;;;;;;1.88;1.00;;;23.20;99.90;;;;;;4955375;28;20670;-72
2021/05/09 08:54:59;;;;;;;1.23;0.90;;;23.90;99.90;;;;;;4955839;29;20208;-72
2021/05/09 08:57:27;;;;;;;1.58;0.85;;;24.30;99.40;;;;;;4955819;29;20223;-71
2021/05/09 08:59:53;;;;;;;0.65;0.65;;;24.80;98.70;;;;;;4955749;29;20212;-71
2021/05/09 09:02:22;;;;;;;2.45;1.08;;;25.20;98.30;;;;;;4955709;28;20208;-72
2021/05/09 09:04:50;;;;;;;1.25;0.80;;;25.60;97.20;;;;;;4955934;29;20211;-71
2021/05/09 09:07:16;;;;;;;3.53;1.10;;;26.00;96.50;;;;;;4955293;29;20223;-71
2021/05/09 09:09:44;;;;;;;1.17;0.80;;;26.60;96.20;;;;;;4955792;29;20218;-72
2021/05/09 09:12:11;;;;;;;1.00;0.75;;;26.60;95.20;;;;;;4955537;28;20208;-72
2021/05/09 09:14:53;;;;;;;1.73;1.00;;;25.80;95.20;;;;;;4955948;29;20216;-72
2021/05/09 09:17:20;;;;;;;0.70;0.70;;;24.70;96.70;;;;;;4955899;29;20279;-71
2021/05/09 09:20:13;;;;;;;1.20;0.70;;;24.60;97.20;;;;;;4955525;29;20235;-72
2021/05/09 09:23:03;;;;;;;1.00;0.70;;;24.90;96.90;;;;;;4955342;28;20232;-71
2021/05/09 09:25:30;;;;;;;0.95;0.90;;;25.10;96.90;;;;;;4955225;29;20693;-72
2021/05/09 09:27:57;;;;;;;1.42;0.75;;;25.10;96.90;;;;;;4955007;29;20259;-71
2021/05/09 09:30:25;;;;;;;1.67;0.80;;;25.50;96.20;;;;;;4955646;29;20267;-71
2021/05/09 09:33:11;;;;;;;2.78;1.00;;;25.50;95.90;;;;;;4955190;28;20236;-70
2021/05/09 09:35:38;;;;;;;1.15;0.70;;;25.30;96.70;;;;;;4955763;29;20215;-71
2021/05/09 09:38:27;;;;;;;1.67;0.80;;;24.90;96.90;;;;;;4955406;29;20683;-71
2021/05/09 09:41:14;;;;;;;1.65;0.93;;;24.80;96.60;;;;;;4955130;29;20668;-71
2021/05/09 09:43:42;;;;;;;1.58;0.80;;;24.40;97.40;;;;;;4954768;28;20343;-71
2021/05/09 09:46:25;;;;;;;2.85;1.02;;;24.10;97.20;;;;;;4955076;29;20678;-71
2021/05/09 09:48:51;;;;;;;1.00;0.90;;;24.00;97.60;;;;;;4955235;29;20255;-71
2021/05/09 09:51:18;;;;;;;1.67;0.88;;;24.00;98.00;;;;;;4955095;29;20219;-71
2021/05/09 09:53:44;;;;;;;1.20;0.80;;;24.20;97.70;;;;;;4954626;28;20235;-71
2021/05/09 09:56:12;;;;;;;3.60;1.25;;;23.90;97.80;;;;;;4954700;29;20208;-71
2021/05/09 09:58:44;;;;;;;1.30;0.93;;;24.10;98.10;;;;;;4954949;29;20254;-71
2021/05/09 10:01:12;;;;;;;1.15;0.90;;;24.30;98.10;;;;;;4954996;29;20211;-71
2021/05/09 10:03:40;;;;;;;1.67;1.00;;;24.30;97.80;;;;;;4954654;28;20220;-72
2021/05/09 10:06:06;;;;;;;4.60;1.08;;;24.10;98.10;;;;;;4954599;29;20219;-71
2021/05/09 10:08:34;;;;;;;1.00;0.70;;;24.40;98.60;;;;;;4954466;29;20243;-71
2021/05/09 10:11:01;;;;;;;2.42;0.80;;;24.60;98.00;;;;;;4954952;29;20214;-72
2021/05/09 10:13:28;;;;;;;0.93;0.70;;;25.00;98.10;;;;;;4954703;28;20232;-72
2021/05/09 10:15:55;;;;;;;1.92;0.95;;;25.20;97.70;;;;;;4954714;29;20212;-72
2021/05/09 10:18:22;;;;;;;1.40;1.00;;;25.20;97.80;;;;;;4955076;29;20271;-72
2021/05/09 10:20:49;;;;;;;3.38;0.90;;;24.70;97.50;;;;;;4954652;29;20211;-72
2021/05/09 10:23:17;;;;;;;4.13;1.23;;;24.20;99.20;;;;;;4954566;28;20288;-71
2021/05/09 10:25:46;;;;;;;3.20;1.05;;;23.80;99.90;;;;;;4958145;29;20251;-72
2021/05/09 10:28:13;;;;;;;1.58;1.20;;;23.30;99.90;;;;;;4958758;29;20242;-71
2021/05/09 10:30:47;;;;;;;2.78;0.98;;;23.20;99.90;;;;;;4958899;29;20216;-71
2021/05/09 10:33:45;;;;;;;1.98;1.10;;;23.20;99.90;;;;;;4958783;28;20261;-72
2021/05/09 10:36:41;;;;;;;1.52;0.88;;;23.20;99.90;;;;;;4959149;29;20212;-72
2021/05/09 10:39:17;;;;;;;1.20;1.00;;;23.30;99.90;;;;;;4958830;29;20275;-71
2021/05/09 10:42:16;;;;;;;1.67;1.00;;;23.40;99.90;;;;;;4958277;29;20203;-71
2021/05/09 10:44:46;;;;;;;1.50;1.02;;;23.20;99.90;;;;;;4958620;29;20207;-72
2021/05/09 10:47:16;;;;;;;1.95;0.90;;;23.00;99.90;;;;;;4958510;29;20706;-71
2021/05/09 10:50:26;;;;;;;1.00;0.80;;;22.90;99.90;;;;;;4958575;29;20223;-71
2021/05/09 10:52:55;;;;;;;3.17;1.35;;;22.60;99.90;;;;;;4958049;28;20235;-72
2021/05/09 10:55:44;;;;;;;1.42;0.95;;;22.30;99.90;;;;;;4958381;29;20218;-71
2021/05/09 10:58:12;;;;;;;1.77;1.08;;;21.90;99.90;;;;;;4957955;29;20299;-72
2021/05/09 11:01:13;;;;;;;2.65;1.05;;;21.80;99.90;;;;;;4957915;29;20214;-72
2021/05/09 11:03:49;;;;;;;1.02;0.80;;;21.70;99.90;;;;;;4958291;28;20232;-72
2021/05/09 11:06:17;;;;;;;1.42;1.10;;;21.40;99.90;;;;;;4958260;29;20376;-71
2021/05/09 11:09:01;;;;;;;1.67;0.90;;;21.00;99.90;;;;;;4957896;29;20239;-71
2021/05/09 11:12:03;;;;;;;2.58;1.30;;;21.10;99.90;;;;;;4957995;29;20212;-71
2021/05/09 11:14:34;;;;;;;1.08;0.90;;;21.00;99.90;;;;;;4955138;28;20234;-71
2021/05/09 11:17:14;;;;;;;2.28;1.08;;;20.70;99.90;;;;;;4957940;29;20218;-71
2021/05/09 11:19:48;;;;;;;2.00;1.10;;;20.40;99.90;;;;;;4957616;29;20298;-71
2021/05/09 11:22:26;;;;;;;3.05;1.05;;;20.20;99.90;;;;;;4956902;28;20299;-71
2021/05/09 11:24:59;;;;;;;1.33;1.07;;;19.90;99.90;;;;;;4957179;29;20473;-72
2021/05/09 11:27:29;;;;;;;1.55;1.30;;;19.60;99.90;;;;;;4957500;29;20675;-72
2021/05/09 11:29:56;;;;;;;3.28;1.40;;;19.70;99.90;;;;;;4957858;29;20211;-72
2021/05/09 11:32:23;;;;;;;1.67;1.40;;;20.10;99.90;;;;;;4957253;28;20235;-72
2021/05/09 11:35:02;;;;;;;1.25;1.13;;;20.60;99.90;;;;;;4957717;28;20216;-72
2021/05/09 11:37:33;;;;;;;2.28;1.45;;;21.30;99.90;;;;;;4957208;29;20299;-71
2021/05/09 11:40:01;;;;;;;1.60;1.20;;;22.00;99.90;;;;;;4956604;29;20575;-72
2021/05/09 11:42:29;;;;;;;1.80;1.10;;;22.70;99.90;;;;;;4951079;28;20212;-71
2021/05/09 11:44:57;;;;;;;1.92;1.17;;;23.10;99.90;;;;;;4944923;29;20268;-71
2021/05/09 11:47:24;;;;;;;1.90;1.17;;;23.40;99.90;;;;;;4943661;29;20212;-71
2021/05/09 11:49:54;;;;;;;5.38;1.15;;;23.50;99.90;;;;;;4942550;29;20221;-71
2021/05/09 11:52:22;;;;;;;5.43;1.45;;;23.60;99.90;;;;;;4938531;28;20200;-71
2021/05/09 11:54:50;;;;;;;1.55;1.00;;;23.80;99.90;;;;;;4946046;29;20593;-70
2021/05/09 11:57:18;;;;;;;1.75;1.20;;;23.90;99.90;;;;;;4940443;29;20205;-70
2021/05/09 11:59:47;;;;;;;2.45;1.40;;;24.00;99.90;;;;;;4945940;29;20648;-70
2021/05/09 12:02:27;;;;;;;2.92;1.25;;;24.20;99.90;;;;;;4950175;28;20556;-71
2021/05/09 12:04:56;;;;;;;1.75;1.20;;;24.40;99.90;;;;;;4945652;29;20208;-71
2021/05/09 12:07:24;;;;;;;1.00;0.90;;;24.60;99.90;;;;;;4950731;29;20220;-72
2021/05/09 12:09:56;;;;;;;3.50;1.42;;;24.60;99.90;;;;;;4940728;29;20212;-71
2021/05/09 12:12:24;;;;;;;1.30;0.82;;;24.70;99.90;;;;;;4936345;29;20243;-71
2021/05/09 12:14:53;;;;;;;1.48;1.00;;;24.70;99.90;;;;;;4937342;29;20571;-73
2021/05/09 12:17:25;;;;;;;1.73;0.95;;;24.60;99.90;;;;;;4937318;29;20221;-72
2021/05/09 12:19:52;;;;;;;2.17;1.00;;;24.50;99.90;;;;;;4937356;29;20655;-72
2021/05/09 12:22:19;;;;;;;1.20;0.98;;;24.50;99.90;;;;;;4937390;29;20213;-71
2021/05/09 12:24:47;;;;;;;1.10;0.95;;;24.40;99.90;;;;;;4937616;29;20216;-73
2021/05/09 12:27:14;;;;;;;2.92;0.85;;;24.60;99.90;;;;;;4937599;29;20216;-72
2021/05/09 12:29:45;;;;;;;2.50;1.20;;;25.00;99.90;;;;;;4937254;29;20240;-72
2021/05/09 12:32:15;;;;;;;2.65;0.80;;;25.20;99.90;;;;;;4937359;29;20209;-72
2021/05/09 12:34:55;;;;;;;2.92;1.10;;;25.50;99.90;;;;;;4937331;29;20218;-71
2021/05/09 12:37:23;;;;;;;3.78;1.30;;;25.40;99.90;;;;;;4937251;29;20216;-71
2021/05/09 12:39:49;;;;;;;3.55;1.13;;;25.20;99.90;;;;;;4937271;29;20256;-72
2021/05/09 12:42:15;;;;;;;1.45;0.90;;;25.30;99.90;;;;;;4937181;29;20217;-72
2021/05/09 12:44:42;;;;;;;3.22;1.27;;;25.40;99.90;;;;;;4937092;29;20209;-72
2021/05/09 12:47:21;;;;;;;3.35;1.00;;;25.30;99.60;;;;;;4936900;29;20219;-72
2021/05/09 12:49:57;;;;;;;1.55;1.00;;;25.00;98.90;;;;;;4937250;29;20236;-71
2021/05/09 12:52:23;;;;;;;1.33;0.90;;;25.00;99.40;;;;;;4937055;29;20573;-72
2021/05/09 12:54:50;;;;;;;0.80;0.80;;;25.00;98.80;;;;;;4937003;29;20272;-72
2021/05/09 12:57:20;;;;;;;1.65;0.80;;;25.00;98.20;;;;;;4936723;29;20287;-73
2021/05/09 12:59:49;;;;;;;3.65;1.10;;;25.10;99.40;;;;;;4936909;29;20272;-72
2021/05/09 13:02:17;;;;;;;3.08;1.00;;;25.30;98.70;;;;;;4936874;29;20209;-71
2021/05/09 13:04:46;;;;;;;2.65;1.10;;;25.60;98.70;;;;;;4936597;29;20205;-70
2021/05/09 13:07:18;;;;;;;1.92;1.33;;;25.70;98.80;;;;;;4936779;29;20252;-71
2021/05/09 13:09:46;;;;;;;1.88;1.25;;;25.70;97.30;;;;;;4936428;29;20240;-71
2021/05/09 13:12:13;;;;;;;1.98;1.00;;;25.60;97.40;;;;;;4936642;29;20205;-72
2021/05/09 13:14:40;;;;;;;1.63;0.80;;;25.60;96.60;;;;;;4936733;29;20209;-71
2021/05/09 13:17:08;;;;;;;1.38;1.00;;;25.50;96.90;;;;;;4936645;29;20220;-70
2021/05/09 13:19:34;;;;;;;1.42;0.90;;;25.50;95.90;;;;;;4936541;29;20209;-72
2021/05/09 13:22:01;;;;;;;2.13;1.20;;;25.30;95.80;;;;;;4936502;29;20212;-71
2021/05/09 13:24:27;;;;;;;3.53;0.93;;;25.40;95.90;;;;;;4936250;29;20240;-71
2021/05/09 13:26:53;;;;;;;1.75;0.90;;;25.20;95.90;;;;;;4936257;29;20216;-71
2021/05/09 13:29:19;;;;;;;2.88;0.90;;;25.20;96.00;;;;;;4936293;29;20255;-71
2021/05/09 13:31:46;;;;;;;1.30;0.80;;;25.30;96.60;;;;;;4936405;29;20223;-71
2021/05/09 13:34:13;;;;;;;0.85;0.80;;;25.40;95.80;;;;;;4936651;29;20256;-71
2021/05/09 13:36:39;;;;;;;2.08;1.25;;;25.50;95.90;;;;;;4936302;29;20275;-72
2021/05/09 13:39:07;;;;;;;1.85;0.90;;;25.80;96.20;;;;;;4936491;29;20223;-71
2021/05/09 13:41:33;;;;;;;1.90;0.85;;;25.80;95.50;;;;;;4936643;29;20216;-72
2021/05/09 13:44:00;;;;;;;1.20;0.90;;;25.80;95.10;;;;;;4936065;29;20715;-71
2021/05/09 13:46:26;;;;;;;2.90;0.90;;;25.90;95.80;;;;;;4936192;29;20213;-71
2021/05/09 13:48:52;;;;;;;1.40;0.93;;;26.00;95.70;;;;;;4936034;29;20237;-71
2021/05/09 13:51:19;;;;;;;1.42;0.90;;;26.20;95.50;;;;;;4935870;29;20217;-72
2021/05/09 13:53:46;;;;;;;4.75;0.95;;;26.20;93.90;;;;;;4935960;29;20240;-72
2021/05/09 13:56:12;;;;;;;3.00;0.95;;;26.20;94.60;;;;;;4936176;29;20220;-71
2021/05/09 13:58:38;;;;;;;1.92;1.08;;;26.10;93.80;;;;;;4935450;29;20205;-71
2021/05/09 14:01:04;;;;;;;2.42;1.15;;;26.20;93.60;;;;;;4936446;29;20219;-70
2021/05/09 14:03:31;;;;;;;3.33;1.25;;;26.30;93.80;;;;;;4936389;29;20236;-71
2021/05/09 14:05:57;;;;;;;2.35;0.98;;;26.30;93.60;;;;;;4935616;29;20739;-71
2021/05/09 14:08:24;;;;;;;4.35;1.00;;;26.30;93.90;;;;;;4935801;29;20291;-71
2021/05/09 14:10:51;;;;;;;1.00;0.77;;;26.40;93.50;;;;;;4936023;29;20208;-72
2021/05/09 14:13:17;;;;;;;1.85;0.80;;;26.50;92.90;;;;;;4935818;29;20592;-71
2021/05/09 14:15:46;;;;;;;2.92;0.98;;;26.50;93.50;;;;;;4935746;29;20209;-71
2021/05/09 14:18:12;;;;;;;1.73;0.90;;;26.60;93.20;;;;;;4935547;29;20212;-71
2021/05/09 14:20:38;;;;;;;1.25;0.88;;;26.70;93.60;;;;;;4936065;29;20209;-71
2021/05/09 14:23:05;;;;;;;1.27;0.65;;;26.90;93.30;;;;;;4936143;29;20228;-72
2021/05/09 14:25:32;;;;;;;1.20;0.73;;;27.00;92.20;;;;;;4935938;29;20224;-72
2021/05/09 14:27:58;;;;;;;1.10;1.00;;;27.30;91.90;;;;;;4935419;29;20299;-72
2021/05/09 14:30:24;;;;;;;1.80;1.00;;;27.50;92.40;;;;;;4935608;29;20220;-72
2021/05/09 14:32:51;;;;;;;1.52;0.82;;;27.70;91.70;;;;;;4935602;29;20229;-72
2021/05/09 14:35:17;;;;;;;0.70;0.70;;;27.60;90.80;;;;;;4935549;29;20224;-72
2021/05/09 14:37:43;;;;;;;3.20;1.05;;;27.30;90.80;;;;;;4935897;29;20215;-72
2021/05/09 14:40:11;;;;;;;1.27;0.80;;;27.20;91.10;;;;;;4935712;29;20216;-71
2021/05/09 14:42:38;;;;;;;3.65;1.23;;;27.20;90.90;;;;;;4935405;29;20236;-71
2021/05/09 14:45:05;;;;;;;1.60;1.00;;;27.40;91.00;;;;;;4935392;29;20299;-72
2021/05/09 14:47:31;;;;;;;1.25;0.90;;;27.20;90.30;;;;;;4935127;29;20238;-72
2021/05/09 14:49:58;;;;;;;2.10;0.98;;;27.00;90.80;;;;;;4934801;29;20240;-71
2021/05/09 14:52:25;;;;;;;1.48;0.90;;;26.80;90.90;;;;;;4935326;29;20240;-72
2021/05/09 14:54:52;;;;;;;1.10;0.80;;;27.00;91.90;;;;;;4935139;29;20219;-72
2021/05/09 14:57:18;;;;;;;1.30;0.85;;;27.20;91.60;;;;;;4935090;29;20209;-71
2021/05/09 14:59:45;;;;;;;2.08;1.02;;;27.10;90.90;;;;;;4934981;29;20208;-72
2021/05/09 15:02:11;;;;;;;1.17;0.90;;;27.00;90.70;;;;;;4935071;29;20213;-72
2021/05/09 15:04:37;;;;;;;1.75;1.08;;;26.90;90.90;;;;;;4934989;29;20244;-71
2021/05/09 15:07:04;;;;;;;1.70;0.90;;;26.60;91.10;;;;;;4935186;29;20220;-72
2021/05/09 15:09:30;;;;;;;1.42;1.00;;;26.60;91.10;;;;;;4935190;29;20232;-71
2021/05/09 15:11:56;;;;;;;2.33;0.80;;;26.70;91.10;;;;;;4938739;29;20260;-72
2021/05/09 15:14:23;;;;;;;1.20;0.93;;;26.70;90.90;;;;;;4938800;29;20703;-71
2021/05/09 15:16:50;;;;;;;2.05;0.68;;;26.90;91.10;;;;;;4938280;29;20212;-72
2021/05/09 15:19:16;;;;;;;1.40;0.82;;;27.00;90.90;;;;;;4938943;29;20217;-72
2021/05/09 15:21:42;;;;;;;1.70;0.90;;;27.10;91.20;;;;;;4938599;29;20213;-72
2021/05/09 15:24:09;;;;;;;1.90;0.98;;;27.00;90.60;;;;;;4938678;29;20232;-72
2021/05/09 15:26:35;;;;;;;3.35;1.08;;;26.80;91.20;;;;;;4938689;29;20216;-71
2021/05/09 15:29:02;;;;;;;2.17;0.80;;;26.90;90.70;;;;;;4938617;29;20247;-71
2021/05/09 15:31:29;;;;;;;1.35;0.70;;;27.00;90.90;;;;;;4938551;29;20216;-70
2021/05/09 15:34:01;;;;;;;2.28;0.90;;;27.20;90.80;;;;;;4938682;29;20256;-72
2021/05/09 15:36:28;;;;;;;1.88;0.80;;;27.10;90.40;;;;;;4938561;29;20239;-72
2021/05/09 15:38:54;;;;;;;2.75;1.00;;;27.10;90.80;;;;;;4938406;29;20219;-72
2021/05/09 15:41:20;;;;;;;3.97;1.50;;;27.10;90.50;;;;;;4938440;29;20212;-70
2021/05/09 15:43:47;;;;;;;1.27;0.70;;;27.00;90.90;;;;;;4938258;29;20358;-70
2021/05/09 15:46:13;;;;;;;1.52;1.05;;;26.90;91.00;;;;;;4938293;29;20231;-70
2021/05/09 15:48:39;;;;;;;3.30;1.10;;;26.90;91.30;;;;;;4937998;29;20616;-71
2021/05/09 15:51:06;;;;;;;1.23;0.82;;;26.90;91.60;;;;;;4938227;29;20734;-71
2021/05/09 15:53:33;;;;;;;4.65;1.00;;;26.80;90.80;;;;;;4938020;29;20232;-71
2021/05/09 15:55:59;;;;;;;1.38;0.88;;;26.60;91.10;;;;;;4938150;29;20205;-71
2021/05/09 15:58:25;;;;;;;2.10;0.82;;;26.50;91.40;;;;;;4937997;29;20213;-70
2021/05/09 16:00:51;;;;;;;1.52;0.80;;;26.50;91.80;;;;;;4938080;29;20236;-71
2021/05/09 16:03:17;;;;;;;1.88;0.70;;;26.40;90.80;;;;;;4938001;29;20280;-71
2021/05/09 16:05:44;;;;;;;1.75;0.88;;;26.30;90.90;;;;;;4937966;29;20251;-72
2021/05/09 16:08:17;;;;;;;1.15;0.70;;;26.40;91.00;;;;;;4937667;29;20268;-72
2021/05/09 16:10:43;;;;;;;0.93;0.68;;;26.30;91.00;;;;;;4937695;29;20596;-72
2021/05/09 16:13:09;;;;;;;1.17;0.90;;;26.40;91.20;;;;;;4937359;29;20592;-71
2021/05/09 16:15:36;;;;;;;1.38;0.80;;;26.40;91.00;;;;;;4937891;29;20560;-72
2021/05/09 16:18:02;;;;;;;1.42;0.70;;;26.50;90.80;;;;;;4937954;29;20209;-71
2021/05/09 16:20:29;;;;;;;1.42;0.90;;;26.50;90.70;;;;;;4937767;29;20209;-72
2021/05/09 16:22:55;;;;;;;1.30;0.75;;;26.40;90.90;;;;;;4936547;29;20228;-72
2021/05/09 16:25:23;;;;;;;2.47;0.77;;;26.40;91.20;;;;;;4937409;29;20208;-72
2021/05/09 16:27:49;;;;;;;1.23;0.88;;;26.30;91.20;;;;;;4937291;29;20288;-72
2021/05/09 16:30:17;;;;;;;1.48;0.80;;;26.30;91.50;;;;;;4937356;29;20572;-72
2021/05/09 16:32:43;;;;;;;4.78;1.02;;;26.30;91.60;;;;;;4937328;29;20233;-72
2021/05/09 16:35:10;;;;;;;1.05;0.80;;;26.30;91.10;;;;;;4937362;29;20208;-71
2021/05/09 16:37:37;;;;;;;2.05;0.70;;;26.20;91.50;;;;;;4937060;29;20268;-72
2021/05/09 16:40:04;;;;;;;2.55;0.70;;;26.30;91.10;;;;;;4937096;29;20242;-72
2021/05/09 16:42:31;;;;;;;2.80;1.05;;;26.20;91.20;;;;;;4937513;29;20217;-73
2021/05/09 16:44:57;;;;;;;2.65;0.90;;;26.00;91.70;;;;;;4937363;29;20214;-71
2021/05/09 16:47:23;;;;;;;2.03;0.93;;;26.10;91.70;;;;;;4937240;29;20276;-71
2021/05/09 16:49:49;;;;;;;0.98;0.90;;;25.80;91.30;;;;;;4936996;29;20237;-72
2021/05/09 16:52:20;;;;;;;1.77;0.80;;;25.70;91.80;;;;;;4936749;29;20235;-72
2021/05/09 16:54:50;;;;;;;0.93;0.80;;;25.60;91.70;;;;;;4936776;29;20213;-71
2021/05/09 16:57:16;;;;;;;0.90;0.70;;;25.80;91.70;;;;;;4937230;29;20209;-72
2021/05/09 16:59:44;;;;;;;1.00;0.63;;;25.90;91.30;;;;;;4936978;29;20208;-72
2021/05/09 17:02:10;;;;;;;0.93;0.75;;;25.90;91.10;;;;;;4936737;29;20224;-72
2021/05/09 17:04:37;;;;;;;2.22;0.82;;;26.00;91.60;;;;;;4936767;29;20224;-72
2021/05/09 17:07:04;;;;;;;1.20;0.95;;;26.30;91.60;;;;;;4936471;29;20746;-72
2021/05/09 17:09:32;;;;;;;1.38;0.88;;;26.50;90.90;;;;;;4936732;29;20248;-72
2021/05/09 17:12:03;;;;;;;1.42;0.90;;;26.60;90.70;;;;;;4936918;29;20224;-71
2021/05/09 17:14:29;;;;;;;2.08;0.90;;;26.70;90.60;;;;;;4936703;29;20267;-72
2021/05/09 17:16:56;;;;;;;1.38;0.90;;;26.60;90.20;;;;;;4936757;29;20231;-72
2021/05/09 17:19:23;;;;;;;2.22;0.80;;;26.50;90.40;;;;;;4936672;29;20208;-72
2021/05/09 17:21:49;;;;;;;2.53;1.25;;;26.30;90.10;;;;;;4936366;29;20220;-72
2021/05/09 17:24:15;;;;;;;1.00;0.85;;;26.30;90.00;;;;;;4936540;29;20225;-72
2021/05/09 17:26:41;;;;;;;4.32;0.85;;;26.10;90.30;;;;;;4936457;29;20213;-72
2021/05/09 17:29:08;;;;;;;1.55;0.90;;;26.20;90.60;;;;;;4936326;29;20236;-72
2021/05/09 17:31:34;;;;;;;1.05;0.80;;;26.00;90.00;;;;;;4936409;29;20217;-72
2021/05/09 17:34:01;;;;;;;2.90;1.00;;;26.00;90.50;;;;;;4935966;29;20229;-71
2021/05/09 17:36:27;;;;;;;2.15;0.80;;;25.90;90.20;;;;;;4936350;29;20213;-72
2021/05/09 17:38:53;;;;;;;0.90;0.70;;;25.80;90.60;;;;;;4936058;29;20213;-71
2021/05/09 17:41:20;;;;;;;1.08;0.88;;;25.70;90.50;;;;;;4936185;29;20212;-72
2021/05/09 17:43:46;;;;;;;1.05;0.93;;;25.70;90.30;;;;;;4936057;29;20719;-71
2021/05/09 17:46:12;;;;;;;1.23;0.90;;;25.70;90.10;;;;;;4936106;29;20231;-72
2021/05/09 17:48:38;;;;;;;0.80;0.73;;;25.70;90.10;;;;;;4935805;29;20240;-72
2021/05/09 17:51:06;;;;;;;4.47;0.63;;;25.60;90.10;;;;;;4935673;29;20209;-72
2021/05/09 17:53:32;;;;;;;3.63;0.93;;;25.60;90.30;;;;;;4935964;29;20257;-70
2021/05/09 17:55:58;;;;;;;1.50;0.75;;;25.60;89.70;;;;;;4935985;29;20216;-71
2021/05/09 17:58:24;;;;;;;1.38;0.90;;;25.50;89.40;;;;;;4936118;29;20212;-72
2021/05/09 18:00:50;;;;;;;1.48;0.60;;;25.50;88.50;;;;;;4936076;29;20272;-71
2021/05/09 18:03:17;;;;;;;1.17;0.60;;;25.40;88.70;;;;;;4935719;29;20228;-71
2021/05/09 18:05:43;;;;;;;1.17;0.60;;;25.30;89.30;;;;;;4936235;29;20221;-73
2021/05/09 18:08:12;;;;;;;0.93;0.55;;;25.20;88.50;;;;;;4936040;29;20231;-73
2021/05/09 18:10:40;;;;;;;2.33;0.75;;;25.20;89.60;;;;;;4936083;29;20223;-73
2021/05/09 18:13:08;;;;;;;1.02;0.70;;;25.20;89.10;;;;;;4935895;29;20391;-73
2021/05/09 18:15:41;;;;;;;1.08;0.70;;;25.20;89.80;;;;;;4935335;29;20260;-71
2021/05/09 18:18:16;;;;;;;2.25;0.73;;;25.10;89.10;;;;;;4935623;29;20826;-71
2021/05/09 18:23:27;;;;;;;0.80;0.60;;;24.90;89.50;;;;;;4935699;29;20235;-72
2021/05/09 18:25:54;;;;;;;1.38;0.70;;;24.90;89.40;;;;;;4935657;29;20227;-72
2021/05/09 18:28:20;;;;;;;1.10;0.55;;;24.70;88.90;;;;;;4935580;29;20212;-71
2021/05/09 18:30:47;;;;;;;4.38;0.80;;;24.60;89.20;;;;;;4935618;29;20209;-72
2021/05/09 18:33:13;;;;;;;1.48;0.60;;;24.50;89.60;;;;;;4935749;29;20229;-71
2021/05/09 18:35:39;;;;;;;1.35;0.80;;;24.50;90.10;;;;;;4935745;29;20575;-72
2021/05/09 18:38:06;;;;;;;2.85;0.52;;;24.50;90.00;;;;;;4935371;29;20243;-72
2021/05/09 18:40:33;;;;;;;0.70;0.70;;;24.40;90.20;;;;;;4935668;29;20217;-72
2021/05/09 18:42:59;;;;;;;1.38;0.60;;;24.40;90.20;;;;;;4935313;29;20229;-73
2021/05/09 18:45:25;;;;;;;2.03;0.60;;;24.30;90.20;;;;;;4936729;29;20219;-72
2021/05/09 18:47:51;;;;;;;2.75;0.60;;;24.20;90.50;;;;;;4942400;29;20207;-72
2021/05/09 18:50:18;;;;;;;1.80;0.50;;;24.20;90.70;;;;;;4945971;29;20711;-71
2021/05/09 18:52:44;;;;;;;0.82;0.60;;;24.10;90.80;;;;;;4947888;29;20576;-72
2021/05/09 18:55:11;;;;;;;1.95;0.47;;;24.00;91.20;;;;;;4943619;29;20212;-72
2021/05/09 18:57:38;;;;;;;3.38;0.70;;;24.00;91.10;;;;;;4946482;29;20212;-72
2021/05/09 19:00:06;;;;;;;1.05;0.60;;;23.90;91.40;;;;;;4947505;29;20217;-71
2021/05/09 19:02:32;;;;;;;2.45;0.60;;;23.90;91.50;;;;;;4945230;29;20617;-72
2021/05/09 19:04:59;;;;;;;2.35;0.70;;;23.90;91.50;;;;;;4947004;29;20224;-72
2021/05/09 19:07:25;;;;;;;0.50;0.50;;;23.90;91.80;;;;;;4953198;29;20208;-71
2021/05/09 19:09:52;;;;;;;0.68;0.60;;;23.90;91.70;;;;;;4949809;29;20723;-72
2021/05/09 19:12:18;;;;;;;1.00;0.80;;;23.80;91.70;;;;;;4944389;29;20208;-72
2021/05/09 19:14:45;;;;;;;1.05;0.63;;;23.70;92.50;;;;;;4953712;29;20263;-72
2021/05/09 19:17:12;;;;;;;0.75;0.73;;;23.70;92.40;;;;;;4949729;29;20208;-72
2021/05/09 19:19:39;;;;;;;4.07;0.63;;;23.30;96.10;;;;;;4945360;29;20215;-72
2021/05/09 19:22:07;;;;;;;1.55;1.13;;;22.80;98.10;;;;;;4943960;29;20209;-72
2021/05/09 19:24:35;;;;;;;2.55;1.10;;;22.30;99.30;;;;;;4953224;29;20239;-72
2021/05/09 19:27:01;;;;;;;3.17;0.90;;;22.10;99.90;;;;;;4950362;29;20567;-71
2021/05/09 19:29:27;;;;;;;5.35;0.80;;;21.90;99.90;;;;;;4950434;29;20260;-71
2021/05/09 19:31:55;;;;;;;1.67;0.95;;;21.70;99.90;;;;;;4944118;29;20209;-72
2021/05/09 19:34:21;;;;;;;1.30;0.60;;;21.60;99.90;;;;;;4945198;28;20231;-71
2021/05/09 19:36:47;;;;;;;2.53;0.90;;;21.40;99.90;;;;;;4942174;29;20217;-72
2021/05/09 19:39:16;;;;;;;2.35;1.60;;;21.40;99.90;;;;;;4941892;29;20208;-73
2021/05/09 19:41:43;;;;;;;1.75;1.00;;;21.40;99.90;;;;;;4945314;29;20204;-71
2021/05/09 19:44:09;;;;;;;2.58;1.10;;;21.30;99.90;;;;;;4946182;28;20243;-72
2021/05/09 19:46:35;;;;;;;1.27;0.80;;;21.30;99.90;;;;;;4946626;29;20208;-72
2021/05/09 19:49:03;;;;;;;1.73;1.00;;;21.20;99.90;;;;;;4949055;29;20753;-72
2021/05/09 19:51:29;;;;;;;5.13;1.05;;;21.20;99.90;;;;;;4945791;29;20670;-71
2021/05/09 19:53:55;;;;;;;2.45;0.90;;;21.10;99.90;;;;;;4950728;28;20225;-71
2021/05/09 19:56:22;;;;;;;3.42;1.23;;;21.10;99.90;;;;;;4947449;29;20667;-71
2021/05/09 19:58:48;;;;;;;1.80;0.90;;;21.00;99.90;;;;;;4951807;29;20598;-72
2021/05/09 20:01:14;;;;;;;1.23;0.88;;;20.90;99.90;;;;;;4952542;28;20204;-73
2021/05/09 20:03:40;;;;;;;1.48;0.80;;;20.90;99.90;;;;;;4950291;29;20769;-71
2021/05/09 20:06:08;;;;;;;1.27;0.93;;;20.90;99.90;;;;;;4949323;29;20817;-71
2021/05/09 20:08:35;;;;;;;1.83;1.10;;;20.90;99.90;;;;;;4945818;29;20244;-71
2021/05/09 20:11:01;;;;;;;1.42;0.80;;;20.90;99.90;;;;;;4952954;28;20218;-71
2021/05/09 20:13:27;;;;;;;3.10;1.15;;;20.70;99.90;;;;;;4946666;29;20561;-71
2021/05/09 20:15:53;;;;;;;2.25;0.85;;;20.70;99.90;;;;;;4948132;28;20208;-71
2021/05/09 20:18:21;;;;;;;2.15;0.88;;;20.70;99.90;;;;;;4946953;29;20215;-70
2021/05/09 20:20:48;;;;;;;1.50;0.90;;;20.80;99.90;;;;;;4941836;29;20212;-71
2021/05/09 20:23:15;;;;;;;1.80;0.90;;;20.70;99.90;;;;;;4943825;28;20239;-71
2021/05/09 20:25:41;;;;;;;1.35;0.80;;;20.70;99.90;;;;;;4946651;29;20241;-71
2021/05/09 20:28:07;;;;;;;1.88;0.90;;;20.70;99.90;;;;;;4954665;29;20219;-71
2021/05/09 20:30:34;;;;;;;1.35;0.80;;;20.60;99.90;;;;;;4952388;29;20737;-71
2021/05/09 20:33:01;;;;;;;0.90;0.75;;;20.60;99.90;;;;;;4944628;28;20243;-72
2021/05/09 20:35:27;;;;;;;1.88;0.88;;;20.60;99.90;;;;;;4945904;29;20204;-72
2021/05/09 20:37:54;;;;;;;2.10;0.85;;;20.50;99.90;;;;;;4944013;29;20220;-73
2021/05/09 20:40:24;;;;;;;1.23;0.88;;;20.40;99.90;;;;;;4950892;29;20223;-72
2021/05/09 20:42:51;;;;;;;1.85;0.82;;;20.40;99.90;;;;;;4950065;28;20228;-71
2021/05/09 20:45:17;;;;;;;1.45;0.80;;;20.40;99.90;;;;;;4945672;29;20235;-71
2021/05/09 20:47:44;;;;;;;2.10;0.77;;;20.20;99.90;;;;;;4949908;29;20228;-71
2021/05/09 20:50:11;;;;;;;2.15;0.73;;;20.20;99.90;;;;;;4949215;29;20248;-71
2021/05/09 20:52:38;;;;;;;0.75;0.60;;;20.20;99.90;;;;;;4947513;28;20236;-70
2021/05/09 20:55:06;;;;;;;0.95;0.77;;;20.20;99.90;;;;;;4949729;29;20208;-71
2021/05/09 20:57:33;;;;;;;3.58;1.13;;;20.20;99.90;;;;;;4947370;29;20215;-71
2021/05/09 20:59:59;;;;;;;2.37;0.63;;;20.20;99.90;;;;;;4943564;29;20216;-72
2021/05/09 21:02:26;;;;;;;1.30;0.80;;;20.20;99.90;;;;;;4947754;28;20599;-70